Time;durP1;ratioP1;P1;durP2;ratioP2;P2;SDS_P1;SDS_P2;PMS_P1;PMS_P2;Temp;Humidity;BMP_temperature;BMP_pressure;BME280_temperature;BME280_humidity;BME280_pressure;Samples;Min_cycle;Max_cycle;Signal;HPM_P1;HPM_P2
2020/12/13 00:00:32;;;;;;;9.95;7.40;;;;;;;;;;4976991;28;20060;-66
2020/12/13 00:02:59;;;;;;;8.80;7.22;;;;;;;;;;4977552;28;20054;-68
2020/12/13 00:05:25;;;;;;;10.60;7.65;;;;;;;;;;4976451;28;20049;-68
2020/12/13 00:07:52;;;;;;;9.15;6.63;;;;;;;;;;4977879;28;20082;-66
2020/12/13 00:10:20;;;;;;;10.27;7.15;;;;;;;;;;4977289;28;20400;-67
2020/12/13 00:12:46;;;;;;;8.90;7.18;;;;;;;;;;4976786;28;20416;-67
2020/12/13 00:15:12;;;;;;;11.20;7.68;;;;;;;;;;4976689;28;20058;-68
2020/12/13 00:17:38;;;;;;;11.70;7.43;;;;;;;;;;4977266;28;20054;-68
2020/12/13 00:20:05;;;;;;;10.55;7.57;;;;;;;;;;4977170;28;20509;-67
2020/12/13 00:22:32;;;;;;;8.73;6.60;;;;;;;;;;4976954;28;20054;-68
2020/12/13 00:24:59;;;;;;;8.73;6.80;;;;;;;;;;4976601;28;20501;-65
2020/12/13 00:27:26;;;;;;;7.93;6.78;;;;;;;;;;4976583;28;20068;-66
2020/12/13 00:29:52;;;;;;;8.23;6.57;;;;;;;;;;4961085;28;20053;-64
2020/12/13 00:32:19;;;;;;;9.02;7.30;;;;;;;;;;4976696;28;20073;-65
2020/12/13 00:34:45;;;;;;;7.35;6.60;;;;;;;;;;4976032;28;20129;-65
2020/12/13 00:37:11;;;;;;;10.63;7.53;;;;;;;;;;4976163;28;20056;-66
2020/12/13 00:39:38;;;;;;;9.77;6.75;;;;;;;;;;4976341;28;20050;-64
2020/12/13 00:42:05;;;;;;;9.52;7.13;;;;;;;;;;4976430;28;20464;-65
2020/12/13 00:44:31;;;;;;;8.90;7.03;;;;;;;;;;4976364;28;20058;-66
2020/12/13 00:46:58;;;;;;;10.32;6.88;;;;;;;;;;4975792;28;20046;-64
2020/12/13 00:49:24;;;;;;;9.57;7.35;;;;;;;;;;4976582;28;20062;-65
2020/12/13 00:51:50;;;;;;;9.68;6.82;;;;;;;;;;4976690;28;20046;-66
2020/12/13 00:54:16;;;;;;;11.38;7.47;;;;;;;;;;4976190;28;20062;-64
2020/12/13 00:56:44;;;;;;;9.43;7.13;;;;;;;;;;4975979;28;20061;-65
2020/12/13 00:59:10;;;;;;;10.50;7.65;;;;;;;;;;4976175;28;20050;-65
2020/12/13 01:01:37;;;;;;;8.52;6.88;;;;;;;;;;4976230;28;20043;-66
2020/12/13 01:04:03;;;;;;;9.73;7.28;;;;;;;;;;4976447;28;20064;-67
2020/12/13 01:06:30;;;;;;;12.00;7.30;;;;;;;;;;4975715;28;20046;-66
2020/12/13 01:08:56;;;;;;;10.02;7.65;;;;;;;;;;4976106;28;20046;-66
2020/12/13 01:11:29;;;;;;;10.43;7.18;;;;;;;;;;4975939;28;20516;-66
2020/12/13 01:13:56;;;;;;;9.10;7.47;;;;;;;;;;4976379;28;20053;-66
2020/12/13 01:16:22;;;;;;;11.43;7.88;;;;;;;;;;4975369;28;20065;-65
2020/12/13 01:18:49;;;;;;;9.30;7.68;;;;;;;;;;4976311;28;20050;-67
2020/12/13 01:21:24;;;;;;;10.05;7.40;;;;;;;;;;4975765;28;20077;-66
2020/12/13 01:23:54;;;;;;;10.25;6.97;;;;;;;;;;4975917;28;20043;-65
2020/12/13 01:26:21;;;;;;;10.35;7.18;;;;;;;;;;4975227;28;20525;-66
2020/12/13 01:28:47;;;;;;;10.75;7.82;;;;;;;;;;4975895;28;20038;-66
2020/12/13 01:31:15;;;;;;;8.95;7.68;;;;;;;;;;4975835;28;20081;-65
2020/12/13 01:33:42;;;;;;;12.57;8.05;;;;;;;;;;4976122;28;20050;-66
2020/12/13 01:36:16;;;;;;;9.65;7.30;;;;;;;;;;4974508;28;20061;-66
2020/12/13 01:38:43;;;;;;;8.48;7.00;;;;;;;;;;4976228;28;20046;-66
2020/12/13 01:41:09;;;;;;;9.73;7.50;;;;;;;;;;4975536;28;20054;-65
2020/12/13 01:43:36;;;;;;;7.97;6.95;;;;;;;;;;4975530;28;20042;-64
2020/12/13 01:46:03;;;;;;;9.60;7.25;;;;;;;;;;4975225;28;20050;-66
2020/12/13 01:48:29;;;;;;;7.95;6.75;;;;;;;;;;4974736;28;20585;-66
2020/12/13 01:53:25;;;;;;;9.75;6.88;;;;;;;;;;4992431;28;20058;-66
2020/12/13 01:55:56;;;;;;;9.05;7.03;;;;;;;;;;4974875;28;20055;-65
2020/12/13 01:58:34;;;;;;;8.35;6.85;;;;;;;;;;4975207;28;20485;-66
2020/12/13 02:01:02;;;;;;;8.52;6.72;;;;;;;;;;4975062;28;20054;-65
2020/12/13 02:03:50;;;;;;;9.77;6.97;;;;;;;;;;4974975;28;20058;-66
2020/12/13 02:06:22;;;;;;;9.50;6.85;;;;;;;;;;4985457;23;20058;-66
2020/12/13 02:08:49;;;;;;;10.15;6.70;;;;;;;;;;4975461;28;20141;-66
2020/12/13 02:11:17;;;;;;;9.38;7.00;;;;;;;;;;4974606;28;20401;-67
2020/12/13 02:13:43;;;;;;;10.38;7.43;;;;;;;;;;4975745;28;20073;-65
2020/12/13 02:16:10;;;;;;;8.93;7.07;;;;;;;;;;4974125;28;20046;-66
2020/12/13 02:18:36;;;;;;;9.00;6.95;;;;;;;;;;4980867;28;20089;-65
2020/12/13 02:21:02;;;;;;;9.43;7.18;;;;;;;;;;4998059;28;20034;-65
2020/12/13 02:23:29;;;;;;;9.00;6.90;;;;;;;;;;4995798;28;20046;-65
2020/12/13 02:25:56;;;;;;;10.70;7.43;;;;;;;;;;4998090;28;20030;-65
2020/12/13 02:28:22;;;;;;;8.25;6.60;;;;;;;;;;4987455;28;20050;-65
2020/12/13 02:30:50;;;;;;;9.63;7.13;;;;;;;;;;4974798;28;20046;-66
2020/12/13 02:33:16;;;;;;;9.75;7.28;;;;;;;;;;4974749;28;20057;-66
2020/12/13 02:35:42;;;;;;;7.60;5.97;;;;;;;;;;4974064;28;20061;-65
2020/12/13 02:38:09;;;;;;;7.18;5.85;;;;;;;;;;4958549;28;20054;-66
2020/12/13 02:40:35;;;;;;;7.32;5.82;;;;;;;;;;4991963;28;20050;-66
2020/12/13 02:43:01;;;;;;;7.20;5.32;;;;;;;;;;4974215;28;20138;-65
2020/12/13 02:45:27;;;;;;;6.22;5.30;;;;;;;;;;4991465;28;20488;-66
2020/12/13 02:51:33;;;;;;;7.90;4.78;;;;;;;;;;4999993;23;20069;-67
2020/12/13 02:54:01;;;;;;;6.60;5.90;;;;;;;;;;4991505;28;20046;-65
2020/12/13 02:56:28;;;;;;;8.70;5.40;;;;;;;;;;4990978;28;20129;-66
2020/12/13 02:58:54;;;;;;;7.18;5.75;;;;;;;;;;4958606;28;20088;-66
2020/12/13 03:01:20;;;;;;;8.60;5.78;;;;;;;;;;4991026;28;20163;-66
2020/12/13 03:03:46;;;;;;;5.95;5.10;;;;;;;;;;4991097;28;20049;-65
2020/12/13 03:06:12;;;;;;;6.65;5.50;;;;;;;;;;4990485;28;20057;-66
2020/12/13 03:08:38;;;;;;;5.80;5.00;;;;;;;;;;4991831;28;20050;-66
2020/12/13 03:11:05;;;;;;;6.95;5.07;;;;;;;;;;4991474;28;20133;-65
2020/12/13 03:13:31;;;;;;;6.63;5.28;;;;;;;;;;4991307;28;20047;-66
2020/12/13 03:46:13;;;;;;;7.43;4.63;;;;;;;;;;4991313;23;20088;-66
2020/12/13 03:48:39;;;;;;;5.68;4.68;;;;;;;;;;4991111;28;20046;-66
2020/12/13 03:51:05;;;;;;;6.00;4.75;;;;;;;;;;4991172;28;20042;-66
2020/12/13 03:53:31;;;;;;;5.05;4.30;;;;;;;;;;4991082;28;20050;-65
2020/12/13 03:55:57;;;;;;;5.72;4.70;;;;;;;;;;4990458;28;20448;-66
2020/12/13 03:58:23;;;;;;;5.90;4.53;;;;;;;;;;4991235;28;20049;-65
2020/12/13 04:00:50;;;;;;;6.47;4.88;;;;;;;;;;4990587;28;20125;-66
2020/12/13 04:11:58;;;;;;;3.50;3.20;;;;;;;;;;3232499;26;20050;-66
2020/12/13 04:14:25;;;;;;;5.38;4.05;;;;;;;;;;4991397;28;20078;-64
2020/12/13 04:16:51;;;;;;;4.68;4.00;;;;;;;;;;4995375;28;20081;-65
2020/12/13 04:19:17;;;;;;;4.35;3.65;;;;;;;;;;4995409;28;20042;-66
2020/12/13 04:21:43;;;;;;;4.72;3.35;;;;;;;;;;4994696;28;20054;-65
2020/12/13 04:24:09;;;;;;;5.28;3.78;;;;;;;;;;4994762;28;20085;-66
2020/12/13 04:26:35;;;;;;;5.78;3.90;;;;;;;;;;4994607;28;20046;-66
2020/12/13 04:29:01;;;;;;;5.20;4.32;;;;;;;;;;4994844;28;20100;-65
2020/12/13 04:31:27;;;;;;;5.85;3.90;;;;;;;;;;4993971;28;20096;-65
2020/12/13 04:33:53;;;;;;;5.20;3.92;;;;;;;;;;4994137;28;20137;-66
2020/12/13 04:36:19;;;;;;;4.75;3.55;;;;;;;;;;4993375;28;20077;-66
2020/12/13 04:38:46;;;;;;;4.35;3.40;;;;;;;;;;4993705;28;20340;-66
2020/12/13 04:41:12;;;;;;;5.20;4.22;;;;;;;;;;4993647;28;20088;-67
2020/12/13 04:43:39;;;;;;;3.83;3.42;;;;;;;;;;4994233;28;20054;-67
2020/12/13 04:46:06;;;;;;;4.10;3.65;;;;;;;;;;4975677;28;20117;-67
2020/12/13 04:48:33;;;;;;;4.65;3.53;;;;;;;;;;4994186;28;20493;-66
2020/12/13 04:50:59;;;;;;;6.20;3.72;;;;;;;;;;4993371;28;20046;-67
2020/12/13 04:53:28;;;;;;;6.00;4.07;;;;;;;;;;4976560;28;20050;-66
2020/12/13 04:55:56;;;;;;;5.93;4.00;;;;;;;;;;4993001;28;20492;-67
2020/12/13 04:58:23;;;;;;;3.72;3.42;;;;;;;;;;4993619;28;20077;-67
2020/12/13 05:00:55;;;;;;;6.93;4.60;;;;;;;;;;4993930;28;20054;-67
2020/12/13 05:03:23;;;;;;;4.00;3.60;;;;;;;;;;4993421;28;20050;-66
2020/12/13 05:05:50;;;;;;;5.10;3.53;;;;;;;;;;4992834;28;20082;-65
2020/12/13 05:08:16;;;;;;;4.05;3.38;;;;;;;;;;4993733;28;20074;-67
2020/12/13 05:10:43;;;;;;;5.28;4.18;;;;;;;;;;4993058;28;20050;-65
2020/12/13 05:13:09;;;;;;;5.75;4.03;;;;;;;;;;4993336;28;20112;-67
2020/12/13 05:15:37;;;;;;;5.30;4.30;;;;;;;;;;4992840;28;20129;-65
2020/12/13 05:18:04;;;;;;;7.85;4.25;;;;;;;;;;4993741;28;20052;-65
2020/12/13 05:20:30;;;;;;;7.13;4.60;;;;;;;;;;4993500;28;20050;-67
2020/12/13 05:22:57;;;;;;;6.20;4.97;;;;;;;;;;4993715;28;20412;-67
2020/12/13 05:25:37;;;;;;;8.65;5.00;;;;;;;;;;4992110;28;20097;-67
2020/12/13 05:28:08;;;;;;;6.10;4.50;;;;;;;;;;4993151;28;20042;-65
2020/12/13 05:30:48;;;;;;;4.78;4.13;;;;;;;;;;4973752;28;20051;-66
2020/12/13 05:33:24;;;;;;;8.05;4.68;;;;;;;;;;4973715;28;20554;-65
2020/12/13 05:35:54;;;;;;;7.00;5.47;;;;;;;;;;4972892;28;20082;-65
2020/12/13 05:38:20;;;;;;;6.68;5.15;;;;;;;;;;4958610;28;20137;-65
2020/12/13 05:40:46;;;;;;;4.22;3.53;;;;;;;;;;4959040;28;20054;-65
2020/12/13 05:43:19;;;;;;;6.50;3.80;;;;;;;;;;4992847;28;20066;-67
2020/12/13 05:53:37;;;;;;;4.53;3.65;;;;;;;;;;4992581;28;20054;-65
2020/12/13 05:56:19;;;;;;;3.67;3.35;;;;;;;;;;4991615;28;20061;-67
2020/12/13 05:58:45;;;;;;;4.53;3.58;;;;;;;;;;4958839;28;20050;-66
2020/12/13 06:01:11;;;;;;;4.45;4.05;;;;;;;;;;4974595;28;20129;-66
2020/12/13 06:03:38;;;;;;;3.97;3.58;;;;;;;;;;4958136;28;20046;-66
2020/12/13 06:06:07;;;;;;;4.82;3.95;;;;;;;;;;4991950;28;20125;-67
2020/12/13 06:09:03;;;;;;;3.88;3.50;;;;;;;;;;4992005;28;20050;-67
2020/12/13 06:11:40;;;;;;;4.55;3.38;;;;;;;;;;4991837;28;20077;-65
2020/12/13 06:14:11;;;;;;;4.15;3.17;;;;;;;;;;4991956;28;20050;-66
2020/12/13 06:16:38;;;;;;;3.72;3.35;;;;;;;;;;4991925;28;20046;-67
2020/12/13 06:19:05;;;;;;;4.43;3.20;;;;;;;;;;4992387;28;20038;-67
2020/12/13 06:21:31;;;;;;;4.68;3.28;;;;;;;;;;4991641;28;20050;-66
2020/12/13 06:23:57;;;;;;;4.72;3.10;;;;;;;;;;4975152;28;20488;-66
2020/12/13 06:26:24;;;;;;;3.08;2.80;;;;;;;;;;4973494;28;20087;-67
2020/12/13 06:28:52;;;;;;;6.35;3.67;;;;;;;;;;4992241;28;20478;-65
2020/12/13 06:31:18;;;;;;;4.40;3.65;;;;;;;;;;4991191;28;20043;-65
2020/12/13 06:33:45;;;;;;;4.25;3.40;;;;;;;;;;4992009;28;20046;-66
2020/12/13 06:36:11;;;;;;;3.50;3.20;;;;;;;;;;4991132;28;20042;-65
2020/12/13 06:38:38;;;;;;;4.47;3.25;;;;;;;;;;4990856;28;20070;-65
2020/12/13 06:41:12;;;;;;;7.18;4.20;;;;;;;;;;4991792;28;20441;-68
2020/12/13 06:43:54;;;;;;;5.13;3.95;;;;;;;;;;4991164;28;20109;-66
2020/12/13 06:46:22;;;;;;;4.43;3.45;;;;;;;;;;4990665;28;20061;-63
2020/12/13 06:48:48;;;;;;;4.50;3.50;;;;;;;;;;4991545;28;20038;-66
2020/12/13 06:51:18;;;;;;;4.90;3.60;;;;;;;;;;4992133;28;20547;-67
2020/12/13 06:53:49;;;;;;;4.93;3.80;;;;;;;;;;4991464;28;20054;-64
2020/12/13 06:56:17;;;;;;;7.07;4.40;;;;;;;;;;4973904;28;20050;-67
2020/12/13 06:58:45;;;;;;;3.60;3.00;;;;;;;;;;4974384;28;20050;-67
2020/12/13 07:01:19;;;;;;;;;;;;;;;;;;4992113;28;20054;-65
2020/12/13 07:03:46;;;;;;;3.75;3.10;;;;;;;;;;4995707;28;19928;-65
2020/12/13 07:06:27;;;;;;;5.40;4.00;;;;;;;;;;4990191;28;20085;-66
2020/12/13 07:08:58;;;;;;;3.97;3.00;;;;;;;;;;4995057;28;20344;-66
2020/12/13 07:11:27;;;;;;;5.07;2.88;;;;;;;;;;4991908;28;20133;-65
2020/12/13 07:14:08;;;;;;;4.50;2.63;;;;;;;;;;4991280;28;20046;-66
2020/12/13 07:16:40;;;;;;;2.53;2.33;;;;;;;;;;4990492;28;20043;-65
2020/12/13 07:19:16;;;;;;;5.63;2.58;;;;;;;;;;4995959;28;20049;-66
2020/12/13 07:21:45;;;;;;;2.75;2.55;;;;;;;;;;4984635;28;20073;-67
2020/12/13 07:24:11;;;;;;;5.93;3.95;;;;;;;;;;4990949;28;20054;-67
2020/12/13 07:26:39;;;;;;;4.30;3.08;;;;;;;;;;4990700;28;20129;-66
2020/12/13 07:29:14;;;;;;;3.38;2.95;;;;;;;;;;4991543;28;20132;-68
2020/12/13 07:31:43;;;;;;;3.15;2.42;;;;;;;;;;4991202;28;20047;-65
2020/12/13 07:34:09;;;;;;;2.70;2.30;;;;;;;;;;4991206;28;20046;-67
2020/12/13 07:36:35;;;;;;;4.38;3.30;;;;;;;;;;4990533;28;20078;-68
2020/12/13 07:39:04;;;;;;;5.88;3.90;;;;;;;;;;4991208;28;20047;-68
2020/12/13 07:41:30;;;;;;;2.35;2.13;;;;;;;;;;4991334;28;20088;-66
2020/12/13 07:44:01;;;;;;;2.13;1.92;;;;;;;;;;4991011;28;20086;-67
2020/12/13 07:46:29;;;;;;;3.88;2.10;;;;;;;;;;4990444;28;20444;-65
2020/12/13 07:48:59;;;;;;;2.58;2.15;;;;;;;;;;4991273;28;20093;-66
2020/12/13 07:51:25;;;;;;;3.00;2.70;;;;;;;;;;4994582;28;20046;-66
2020/12/13 07:53:51;;;;;;;3.90;2.60;;;;;;;;;;4994874;28;20047;-67
2020/12/13 07:56:27;;;;;;;2.42;2.22;;;;;;;;;;4993865;28;20563;-67
2020/12/13 07:59:18;;;;;;;2.13;1.70;;;;;;;;;;4994900;28;20082;-68
2020/12/13 08:01:48;;;;;;;2.45;2.10;;;;;;;;;;4994839;28;20058;-65
2020/12/13 08:04:15;;;;;;;2.13;1.75;;;;;;;;;;4994354;28;20047;-67
2020/12/13 08:06:41;;;;;;;2.42;2.10;;;;;;;;;;4994318;28;20081;-66
2020/12/13 08:09:14;;;;;;;2.90;2.40;;;;;;;;;;4994921;28;20089;-66
2020/12/13 08:11:40;;;;;;;2.25;1.85;;;;;;;;;;4994532;28;20086;-65
2020/12/13 08:14:07;;;;;;;1.98;1.60;;;;;;;;;;4994356;28;20520;-65
2020/12/13 08:16:34;;;;;;;1.58;1.30;;;;;;;;;;4994072;28;20089;-67
2020/12/13 08:19:33;;;;;;;1.80;1.70;;;;;;;;;;4994710;28;20057;-67
2020/12/13 08:22:04;;;;;;;2.78;2.55;;;;;;;;;;4962283;28;20410;-66
2020/12/13 08:24:31;;;;;;;3.30;2.80;;;;;;;;;;4960880;28;20582;-66
2020/12/13 08:27:00;;;;;;;2.30;2.05;;;;;;;;;;4977058;28;20046;-67
2020/12/13 08:29:28;;;;;;;3.22;2.33;;;;;;;;;;4977931;28;20108;-68
2020/12/13 08:31:54;;;;;;;3.22;2.67;;;;;;;;;;4977914;28;20409;-68
2020/12/13 08:34:30;;;;;;;2.53;2.33;;;;;;;;;;4961347;28;20481;-66
2020/12/13 08:36:58;;;;;;;4.78;3.47;;;;;;;;;;4993750;28;20470;-66
2020/12/13 08:39:35;;;;;;;3.97;3.55;;;;;;;;;;4993982;28;20050;-67
2020/12/13 08:42:03;;;;;;;3.83;3.13;;;;;;;;;;4993931;28;20050;-67
2020/12/13 08:44:36;;;;;;;5.03;3.92;;;;;;;;;;4993028;28;20454;-66
2020/12/13 08:47:09;;;;;;;;;;;;;;;;;;4994367;28;20070;-68
2020/12/13 08:49:37;;;;;;;5.93;4.57;;;;;;;;;;4993298;28;20402;-66
2020/12/13 08:52:15;;;;;;;6.03;5.05;;;;;;;;;;4993899;28;20046;-64
2020/12/13 08:54:57;;;;;;;5.68;4.70;;;;;;;;;;4993263;28;20100;-63
2020/12/13 08:57:29;;;;;;;5.38;4.28;;;;;;;;;;4992957;28;20046;-66
2020/12/13 09:00:10;;;;;;;4.80;4.30;;;;;;;;;;4993522;28;20104;-62
2020/12/13 09:02:58;;;;;;;6.63;4.97;;;;;;;;;;4992814;28;20511;-62
2020/12/13 09:05:29;;;;;;;6.43;5.43;;;;;;;;;;4989484;28;20050;-63
2020/12/13 09:07:56;;;;;;;8.55;6.55;;;;;;;;;;4991179;28;20046;-63
2020/12/13 09:10:23;;;;;;;6.18;5.35;;;;;;;;;;4991637;28;20054;-62
2020/12/13 09:12:49;;;;;;;7.35;5.85;;;;;;;;;;4991864;28;20050;-63
2020/12/13 09:15:20;;;;;;;9.32;6.45;;;;;;;;;;4990533;28;20090;-64
2020/12/13 09:17:59;;;;;;;8.18;5.43;;;;;;;;;;4990931;28;20050;-63
2020/12/13 09:20:33;;;;;;;5.90;4.88;;;;;;;;;;4991555;28;20077;-64
2020/12/13 09:23:18;;;;;;;7.03;5.55;;;;;;;;;;4991466;28;20054;-64
2020/12/13 09:25:45;;;;;;;5.85;5.18;;;;;;;;;;4990233;28;20137;-63
2020/12/13 09:28:12;;;;;;;5.35;4.15;;;;;;;;;;4990908;28;20136;-65
2020/12/13 09:30:39;;;;;;;5.70;4.97;;;;;;;;;;4990831;28;20128;-62
2020/12/13 09:33:05;;;;;;;5.60;4.28;;;;;;;;;;4990899;28;20108;-63
2020/12/13 09:35:32;;;;;;;7.35;5.22;;;;;;;;;;4990392;28;20054;-62
2020/12/13 09:37:58;;;;;;;5.50;4.82;;;;;;;;;;4991231;28;20078;-64
2020/12/13 09:40:26;;;;;;;5.50;4.97;;;;;;;;;;4990760;28;20054;-63
2020/12/13 09:42:53;;;;;;;7.03;5.53;;;;;;;;;;4990995;28;20635;-62
2020/12/13 09:45:20;;;;;;;6.15;5.50;;;;;;;;;;4989096;28;20563;-62
2020/12/13 09:47:46;;;;;;;8.13;5.88;;;;;;;;;;4991239;28;20086;-62
2020/12/13 09:50:12;;;;;;;6.97;5.10;;;;;;;;;;4991305;28;20046;-63
2020/12/13 09:52:38;;;;;;;6.40;4.88;;;;;;;;;;4992630;28;20086;-63
2020/12/13 09:55:04;;;;;;;5.00;4.22;;;;;;;;;;4992242;28;20366;-63
2020/12/13 09:57:30;;;;;;;5.00;4.45;;;;;;;;;;4991700;28;20046;-63
2020/12/13 09:59:56;;;;;;;6.30;3.97;;;;;;;;;;4992962;28;20081;-63
2020/12/13 10:02:22;;;;;;;4.55;3.72;;;;;;;;;;4992139;28;20494;-62
2020/12/13 10:04:49;;;;;;;7.72;4.47;;;;;;;;;;4992228;28;20066;-63
2020/12/13 10:09:44;;;;;;;5.68;3.75;;;;;;;;;;4992571;28;20120;-63
2020/12/13 10:12:10;;;;;;;6.32;3.72;;;;;;;;;;4989851;28;20104;-64
2020/12/13 10:14:36;;;;;;;8.05;5.10;;;;;;;;;;4990145;28;20074;-64
2020/12/13 10:17:03;;;;;;;5.47;3.58;;;;;;;;;;4989916;28;20320;-65
2020/12/13 10:19:29;;;;;;;5.22;3.85;;;;;;;;;;4989743;28;20058;-64
2020/12/13 10:21:55;;;;;;;5.07;3.55;;;;;;;;;;4990436;28;20069;-64
2020/12/13 10:24:21;;;;;;;5.43;4.05;;;;;;;;;;4990267;28;20132;-64
2020/12/13 10:26:47;;;;;;;6.07;3.22;;;;;;;;;;4988516;28;20081;-63
2020/12/13 10:29:13;;;;;;;4.28;3.13;;;;;;;;;;4989370;28;20046;-63
2020/12/13 10:31:46;;;;;;;5.75;3.58;;;;;;;;;;4989861;28;20177;-63
2020/12/13 10:34:14;;;;;;;4.05;2.60;;;;;;;;;;4989324;28;20384;-62
2020/12/13 10:36:40;;;;;;;4.60;3.33;;;;;;;;;;4989611;28;20081;-63
2020/12/13 10:39:07;;;;;;;6.30;3.72;;;;;;;;;;4989671;28;20446;-63
2020/12/13 10:41:34;;;;;;;5.78;3.58;;;;;;;;;;4989693;28;20140;-64
2020/12/13 10:44:00;;;;;;;3.55;2.92;;;;;;;;;;4990394;28;20120;-64
2020/12/13 10:46:26;;;;;;;3.70;3.30;;;;;;;;;;4988630;28;20054;-64
2020/12/13 10:48:53;;;;;;;6.40;3.25;;;;;;;;;;4990106;28;20191;-63
2020/12/13 10:51:19;;;;;;;5.28;3.00;;;;;;;;;;4988769;28;20116;-64
2020/12/13 10:53:46;;;;;;;6.13;3.42;;;;;;;;;;4989692;28;20078;-64
2020/12/13 10:56:13;;;;;;;7.15;3.22;;;;;;;;;;4988996;28;20054;-63
2020/12/13 10:58:43;;;;;;;7.07;5.10;;;;;;;;;;4982373;28;20050;-64
2020/12/13 11:01:10;;;;;;;5.47;3.58;;;;;;;;;;4975832;28;20489;-64
2020/12/13 11:03:36;;;;;;;3.70;2.70;;;;;;;;;;4973880;28;20058;-64
2020/12/13 11:06:03;;;;;;;2.75;2.35;;;;;;;;;;4978215;28;20445;-70
2020/12/13 11:08:29;;;;;;;3.75;2.22;;;;;;;;;;4976113;28;20056;-70
2020/12/13 11:10:55;;;;;;;3.05;2.10;;;;;;;;;;4978696;28;20599;-67
2020/12/13 11:13:21;;;;;;;4.38;2.78;;;;;;;;;;4973787;28;20046;-71
2020/12/13 11:15:47;;;;;;;2.70;2.40;;;;;;;;;;4974798;28;20086;-70
2020/12/13 11:18:14;;;;;;;3.45;2.47;;;;;;;;;;4977183;28;20050;-67
2020/12/13 11:20:41;;;;;;;5.72;2.10;;;;;;;;;;4979225;28;20078;-71
2020/12/13 11:23:07;;;;;;;6.45;3.95;;;;;;;;;;4982388;28;20401;-68
2020/12/13 11:25:33;;;;;;;6.80;3.10;;;;;;;;;;4978343;28;20148;-69
2020/12/13 11:28:01;;;;;;;4.38;2.60;;;;;;;;;;4984495;28;20039;-69
2020/12/13 11:30:27;;;;;;;3.63;2.72;;;;;;;;;;4981623;28;20109;-68
2020/12/13 11:32:53;;;;;;;6.13;2.80;;;;;;;;;;4984976;28;20078;-69
2020/12/13 11:35:19;;;;;;;4.00;2.78;;;;;;;;;;4980455;28;20054;-70
2020/12/13 11:37:46;;;;;;;3.78;2.30;;;;;;;;;;4981552;28;20042;-67
2020/12/13 11:40:12;;;;;;;3.38;2.13;;;;;;;;;;4981764;28;20081;-67
2020/12/13 11:42:38;;;;;;;2.53;2.33;;;;;;;;;;4981245;28;20068;-71
2020/12/13 11:45:05;;;;;;;4.90;2.28;;;;;;;;;;4981799;28;20081;-69
2020/12/13 11:47:31;;;;;;;5.38;2.40;;;;;;;;;;4982950;28;20051;-66
2020/12/13 11:49:57;;;;;;;6.68;3.75;;;;;;;;;;4982258;28;20121;-68
2020/12/13 11:52:23;;;;;;;6.65;3.10;;;;;;;;;;4983509;28;20039;-69
2020/12/13 11:54:50;;;;;;;7.45;3.88;;;;;;;;;;4966056;28;20485;-68
2020/12/13 11:57:16;;;;;;;9.23;4.13;;;;;;;;;;4979411;28;20078;-72
2020/12/13 11:59:42;;;;;;;11.43;4.93;;;;;;;;;;4980233;28;20038;-71
2020/12/13 12:02:08;;;;;;;8.52;4.15;;;;;;;;;;4991434;28;20109;-67
2020/12/13 12:04:34;;;;;;;5.60;2.95;;;;;;;;;;4993520;28;20050;-71
2020/12/13 12:07:01;;;;;;;7.47;3.00;;;;;;;;;;4992393;28;20216;-71
2020/12/13 12:09:28;;;;;;;6.55;3.25;;;;;;;;;;4993389;28;20194;-70
2020/12/13 12:11:54;;;;;;;8.10;3.47;;;;;;;;;;4994579;28;20126;-65
2020/12/13 12:14:20;;;;;;;5.70;3.80;;;;;;;;;;4994177;28;20101;-69
2020/12/13 12:16:46;;;;;;;5.57;3.33;;;;;;;;;;4994111;28;20085;-68
2020/12/13 12:19:13;;;;;;;5.00;2.75;;;;;;;;;;4994650;28;20047;-71
2020/12/13 12:21:47;;;;;;;6.47;3.03;;;;;;;;;;4994236;28;20053;-68
2020/12/13 12:24:16;;;;;;;3.45;2.33;;;;;;;;;;4985857;28;20106;-69
2020/12/13 12:26:42;;;;;;;4.00;2.78;;;;;;;;;;4981539;28;20141;-71
2020/12/13 12:29:08;;;;;;;3.42;2.13;;;;;;;;;;4981137;28;20096;-67
2020/12/13 12:31:36;;;;;;;3.15;2.13;;;;;;;;;;4983946;28;20078;-69
2020/12/13 12:34:02;;;;;;;5.90;2.55;;;;;;;;;;4981753;28;20074;-71
2020/12/13 12:36:29;;;;;;;3.95;3.25;;;;;;;;;;4979403;28;20207;-70
2020/12/13 12:38:55;;;;;;;4.22;2.70;;;;;;;;;;4981097;28;20042;-69
2020/12/13 12:41:22;;;;;;;5.30;3.00;;;;;;;;;;4980181;28;20046;-71
2020/12/13 12:43:49;;;;;;;7.13;3.00;;;;;;;;;;4980325;28;20754;-67
2020/12/13 12:46:16;;;;;;;3.60;2.35;;;;;;;;;;4978017;28;20086;-69
2020/12/13 12:48:47;;;;;;;3.40;2.17;;;;;;;;;;4978093;28;20054;-65
2020/12/13 12:51:15;;;;;;;7.47;3.28;;;;;;;;;;4981831;28;20390;-66
2020/12/13 12:53:41;;;;;;;2.97;2.03;;;;;;;;;;4977149;28;20061;-65
2020/12/13 12:56:09;;;;;;;4.95;2.30;;;;;;;;;;4978373;28;20564;-63
2020/12/13 12:58:48;;;;;;;4.78;2.05;;;;;;;;;;4977103;28;20133;-69
2020/12/13 13:01:17;;;;;;;5.32;1.95;;;;;;;;;;4982373;28;20101;-67
2020/12/13 13:03:45;;;;;;;5.15;2.17;;;;;;;;;;4978726;28;20042;-68
2020/12/13 13:06:26;;;;;;;4.35;2.47;;;;;;;;;;4983866;28;20054;-66
2020/12/13 13:09:07;;;;;;;6.25;2.20;;;;;;;;;;4976515;28;20133;-66
2020/12/13 13:11:36;;;;;;;6.88;3.10;;;;;;;;;;4988570;28;20117;-68
2020/12/13 13:14:03;;;;;;;9.07;2.60;;;;;;;;;;4991346;28;20093;-70
2020/12/13 13:16:29;;;;;;;6.10;2.80;;;;;;;;;;4989322;28;20054;-67
2020/12/13 13:18:59;;;;;;;3.38;2.00;;;;;;;;;;4990072;28;20133;-65
2020/12/13 13:21:26;;;;;;;6.70;2.15;;;;;;;;;;4991179;28;20058;-65
2020/12/13 13:23:52;;;;;;;6.88;2.20;;;;;;;;;;4991389;28;20085;-64
2020/12/13 13:26:21;;;;;;;3.85;1.83;;;;;;;;;;4990770;28;20452;-65
2020/12/13 13:28:48;;;;;;;6.38;2.75;;;;;;;;;;4991510;28;20079;-65
2020/12/13 13:31:15;;;;;;;10.20;2.97;;;;;;;;;;5003574;28;20046;-65
2020/12/13 13:33:43;;;;;;;4.18;2.88;;;;;;;;;;5009030;28;20077;-64
2020/12/13 13:36:13;;;;;;;3.90;2.83;;;;;;;;;;5008607;28;20055;-65
2020/12/13 13:38:43;;;;;;;5.85;2.45;;;;;;;;;;4991763;28;20503;-64
2020/12/13 13:41:15;;;;;;;4.38;2.72;;;;;;;;;;4991118;28;20501;-66
2020/12/13 13:43:45;;;;;;;3.17;1.83;;;;;;;;;;4991194;28;20086;-67
2020/12/13 13:51:37;;;;;;;5.80;3.00;;;;;;;;;;4990130;28;20121;-63
2020/12/13 13:54:08;;;;;;;5.63;3.17;;;;;;;;;;4989587;28;20074;-64
2020/12/13 13:56:46;;;;;;;5.75;2.40;;;;;;;;;;4989681;28;20084;-65
2020/12/13 13:59:15;;;;;;;5.38;2.47;;;;;;;;;;4984067;28;20138;-64
2020/12/13 14:01:41;;;;;;;7.75;2.75;;;;;;;;;;4977896;28;20085;-61
2020/12/13 14:04:07;;;;;;;7.30;3.30;;;;;;;;;;4984770;28;20149;-64
2020/12/13 14:09:18;;;;;;;7.97;3.33;;;;;;;;;;4978871;28;20062;-63
2020/12/13 14:11:48;;;;;;;9.52;3.97;;;;;;;;;;4976669;28;20101;-63
2020/12/13 14:14:16;;;;;;;11.90;4.68;;;;;;;;;;4978660;28;20051;-64
2020/12/13 14:16:44;;;;;;;10.02;4.70;;;;;;;;;;4976616;28;20074;-63
2020/12/13 14:19:10;;;;;;;11.00;4.93;;;;;;;;;;4981113;28;20409;-63
2020/12/13 14:21:36;;;;;;;11.90;4.10;;;;;;;;;;4977620;28;20128;-63
2020/12/13 14:24:02;;;;;;;12.02;6.40;;;;;;;;;;4979475;28;20097;-63
2020/12/13 14:26:29;;;;;;;11.68;4.40;;;;;;;;;;4976635;28;20085;-62
2020/12/13 14:28:55;;;;;;;8.48;3.83;;;;;;;;;;4979847;28;20105;-63
2020/12/13 14:31:21;;;;;;;6.65;4.00;;;;;;;;;;4979868;28;20046;-63
2020/12/13 14:33:47;;;;;;;7.07;3.53;;;;;;;;;;4978826;28;20508;-63
2020/12/13 14:36:21;;;;;;;6.57;3.67;;;;;;;;;;4974567;28;20141;-62
2020/12/13 14:38:50;;;;;;;3.88;3.20;;;;;;;;;;4970964;28;20102;-61
2020/12/13 14:41:16;;;;;;;5.13;3.25;;;;;;;;;;4968362;28;20093;-62
2020/12/13 14:43:43;;;;;;;6.50;3.65;;;;;;;;;;4969318;28;20054;-62
2020/12/13 14:46:13;;;;;;;8.65;5.32;;;;;;;;;;4969438;28;20090;-63
2020/12/13 14:48:40;;;;;;;10.82;5.25;;;;;;;;;;4987625;28;20046;-62
2020/12/13 14:51:07;;;;;;;10.55;4.78;;;;;;;;;;4989057;28;20046;-62
2020/12/13 14:53:33;;;;;;;13.20;5.43;;;;;;;;;;4989141;28;20054;-62
2020/12/13 14:56:05;;;;;;;10.98;5.93;;;;;;;;;;4981327;28;20082;-63
2020/12/13 14:58:32;;;;;;;11.23;4.75;;;;;;;;;;4974364;28;20539;-62
2020/12/13 15:00:58;;;;;;;13.15;5.55;;;;;;;;;;4978124;28;20110;-62
2020/12/13 15:03:25;;;;;;;18.25;7.95;;;;;;;;;;4979516;28;20050;-62
2020/12/13 15:05:51;;;;;;;9.20;5.00;;;;;;;;;;4973681;28;20109;-62
2020/12/13 15:08:18;;;;;;;7.22;5.40;;;;;;;;;;4975976;28;20079;-62
2020/12/13 15:10:45;;;;;;;7.90;4.40;;;;;;;;;;4974897;28;20129;-62
2020/12/13 15:13:17;;;;;;;11.52;4.75;;;;;;;;;;4980539;28;20304;-62
2020/12/13 15:18:10;;;;;;;7.07;4.20;;;;;;;;;;4976638;28;20329;-62
2020/12/13 15:20:36;;;;;;;8.73;4.60;;;;;;;;;;4974776;28;20078;-62
2020/12/13 15:23:02;;;;;;;6.47;3.90;;;;;;;;;;4977746;28;20038;-62
2020/12/13 15:25:29;;;;;;;8.07;4.63;;;;;;;;;;4974149;28;20055;-62
2020/12/13 15:27:57;;;;;;;8.27;5.45;;;;;;;;;;4986160;28;20524;-62
2020/12/13 15:30:23;;;;;;;5.85;4.63;;;;;;;;;;4989245;28;20077;-62
2020/12/13 15:32:49;;;;;;;6.78;4.45;;;;;;;;;;4987384;28;20058;-62
2020/12/13 15:35:15;;;;;;;6.55;4.00;;;;;;;;;;4986752;28;20058;-63
2020/12/13 15:37:41;;;;;;;7.95;3.90;;;;;;;;;;4989615;28;20425;-62
2020/12/13 15:40:08;;;;;;;7.68;4.10;;;;;;;;;;4989410;28;20083;-62
2020/12/13 15:42:36;;;;;;;5.15;3.58;;;;;;;;;;4988949;28;20078;-62
2020/12/13 15:45:04;;;;;;;5.38;3.90;;;;;;;;;;4988726;28;20046;-62
2020/12/13 15:47:31;;;;;;;5.75;3.70;;;;;;;;;;4988989;28;20304;-62
2020/12/13 15:49:58;;;;;;;5.55;3.38;;;;;;;;;;4971713;28;20509;-61
2020/12/13 15:52:24;;;;;;;6.90;4.72;;;;;;;;;;4988960;28;20078;-63
2020/12/13 15:54:50;;;;;;;5.05;4.00;;;;;;;;;;4989025;28;20069;-64